createdAt,value
2018-02-13T00:00:38.379Z,-0.20
2018-02-13T00:03:05.063Z,-0.20
2018-02-13T00:05:31.059Z,-0.20
2018-02-13T00:07:57.005Z,-0.20
2018-02-13T00:10:22.971Z,-0.10
2018-02-13T00:12:48.931Z,-0.10
2018-02-13T00:15:14.886Z,0.00
2018-02-13T00:17:40.991Z,0.10
2018-02-13T00:20:06.937Z,0.00
2018-02-13T00:22:32.920Z,0.10
2018-02-13T00:24:58.853Z,0.10
2018-02-13T00:27:24.840Z,0.10
2018-02-13T00:29:51.661Z,0.30
2018-02-13T00:32:17.739Z,0.30
2018-02-13T00:34:43.685Z,0.30
2018-02-13T00:37:09.676Z,0.40
2018-02-13T00:39:35.619Z,0.40
2018-02-13T00:42:01.704Z,0.50
2018-02-13T00:44:28.392Z,0.50
2018-02-13T00:46:54.364Z,0.50
2018-02-13T00:49:21.094Z,0.60
2018-02-13T00:51:47.787Z,0.60
2018-02-13T00:54:13.792Z,0.60
2018-02-13T00:56:39.723Z,0.50
2018-02-13T00:59:05.811Z,0.50
2018-02-13T01:01:31.761Z,0.50
2018-02-13T01:03:57.743Z,0.50
2018-02-13T01:06:23.716Z,0.40
2018-02-13T01:08:49.693Z,0.30
2018-02-13T01:11:16.419Z,0.30
2018-02-13T01:13:42.357Z,0.30
2018-02-13T01:16:08.472Z,0.20
2018-02-13T01:18:34.415Z,0.30
2018-02-13T01:21:00.521Z,0.20
2018-02-13T01:23:26.492Z,0.30
2018-02-13T01:25:52.440Z,0.30
2018-02-13T01:28:18.415Z,0.40
2018-02-13T01:30:44.496Z,0.50
2018-02-13T01:33:10.486Z,0.40
2018-02-13T01:35:36.432Z,0.50
2018-02-13T01:38:02.385Z,0.50
2018-02-13T01:40:29.200Z,0.40
2018-02-13T01:42:55.143Z,0.40
2018-02-13T01:45:21.856Z,0.40
2018-02-13T01:47:47.814Z,0.40
2018-02-13T01:50:14.647Z,0.40
2018-02-13T01:52:41.315Z,0.40
2018-02-13T01:55:07.256Z,0.40
2018-02-13T01:57:33.339Z,0.40
2018-02-13T01:59:59.305Z,0.40
2018-02-13T02:02:25.259Z,0.50
2018-02-13T02:04:51.207Z,0.60
2018-02-13T02:07:18.031Z,0.60
2018-02-13T02:09:43.980Z,0.60
2018-02-13T02:12:09.956Z,0.70
2018-02-13T02:14:35.904Z,0.70
2018-02-13T02:17:02.583Z,0.80
2018-02-13T02:19:28.566Z,0.80
2018-02-13T02:21:55.246Z,0.80
2018-02-13T02:24:21.337Z,0.80
2018-02-13T02:26:48.011Z,0.90
2018-02-13T02:29:14.154Z,0.80
2018-02-13T02:31:40.117Z,0.90
2018-02-13T02:34:06.843Z,0.80
2018-02-13T02:36:32.784Z,0.80
2018-02-13T02:38:59.628Z,0.80
2018-02-13T02:41:26.338Z,0.80
2018-02-13T02:43:52.280Z,0.80
2018-02-13T02:46:18.992Z,0.80
2018-02-13T02:48:44.960Z,0.80
2018-02-13T02:51:10.936Z,0.80
2018-02-13T02:53:36.876Z,0.70
2018-02-13T02:56:02.952Z,0.60
2018-02-13T02:58:28.889Z,0.50
2018-02-13T03:00:54.827Z,0.50
2018-02-13T03:03:20.920Z,0.50
2018-02-13T03:05:46.839Z,0.50
2018-02-13T03:08:12.828Z,0.50
2018-02-13T03:10:38.772Z,0.40
2018-02-13T03:13:04.737Z,0.40
2018-02-13T03:15:30.703Z,0.40
2018-02-13T03:17:56.701Z,0.40
2018-02-13T03:20:22.667Z,0.40
2018-02-13T03:22:48.596Z,0.40
2018-02-13T03:25:15.311Z,0.50
2018-02-13T03:27:41.243Z,0.50
2018-02-13T03:30:07.467Z,0.50
2018-02-13T03:32:33.419Z,0.50
2018-02-13T03:34:59.387Z,0.40
2018-02-13T03:37:26.107Z,0.50
2018-02-13T03:39:52.054Z,0.40
2018-02-13T03:42:18.782Z,0.50
2018-02-13T03:44:44.703Z,0.50
2018-02-13T03:47:10.774Z,0.50
2018-02-13T03:49:36.722Z,0.50
2018-02-13T03:52:02.720Z,0.50
2018-02-13T03:54:28.643Z,0.60
2018-02-13T03:56:54.576Z,0.50
2018-02-13T03:59:20.551Z,0.50
2018-02-13T04:01:47.238Z,0.40
2018-02-13T04:04:13.195Z,0.40
2018-02-13T04:06:39.885Z,0.40
2018-02-13T04:09:05.958Z,0.40
2018-02-13T04:11:32.676Z,0.30
2018-02-13T04:13:58.649Z,0.30
2018-02-13T04:16:24.616Z,0.30
2018-02-13T04:18:50.552Z,0.20
2018-02-13T04:21:16.523Z,0.20
2018-02-13T04:23:42.464Z,0.10
2018-02-13T04:26:08.540Z,0.10
2018-02-13T04:28:35.239Z,0.00
2018-02-13T04:31:01.357Z,0.00
2018-02-13T04:33:27.321Z,0.10
2018-02-13T04:35:54.009Z,0.00
2018-02-13T04:38:20.727Z,-0.10
2018-02-13T04:40:46.663Z,-0.10
2018-02-13T04:43:12.739Z,0.00
2018-02-13T04:45:38.699Z,-0.10
2018-02-13T04:48:04.676Z,-0.10
2018-02-13T04:50:30.627Z,-0.20
2018-02-13T04:52:57.312Z,-0.20
2018-02-13T04:55:23.396Z,-0.20
2018-02-13T04:57:49.319Z,-0.20
2018-02-13T05:00:15.397Z,-0.20
2018-02-13T05:02:41.336Z,-0.30
2018-02-13T05:05:07.294Z,-0.30
2018-02-13T05:07:33.262Z,-0.40
2018-02-13T05:09:59.197Z,-0.50
2018-02-13T05:12:25.189Z,-0.50
2018-02-13T05:14:51.166Z,-0.60
2018-02-13T05:17:17.911Z,-0.70
2018-02-13T05:19:43.966Z,-0.70
2018-02-13T05:22:09.944Z,-0.60
2018-02-13T05:24:36.652Z,-0.70
2018-02-13T05:27:02.597Z,-0.70
2018-02-13T05:29:28.723Z,-0.60
2018-02-13T05:31:54.643Z,-0.60
2018-02-13T05:34:20.715Z,-0.60
2018-02-13T05:36:46.646Z,-0.70
2018-02-13T05:39:12.616Z,-0.70
2018-02-13T05:41:39.318Z,-0.60
2018-02-13T05:44:05.264Z,-0.60
2018-02-13T05:46:31.346Z,-0.60
2018-02-13T05:48:57.296Z,-0.70
2018-02-13T05:51:23.275Z,-0.60
2018-02-13T05:53:49.222Z,-0.60
2018-02-13T05:56:15.163Z,-0.70
2018-02-13T05:58:41.144Z,-0.70
2018-02-13T06:01:07.111Z,-0.70
2018-02-13T06:03:33.195Z,-0.70
2018-02-13T06:05:59.860Z,-0.80
2018-02-13T06:08:25.844Z,-0.80
2018-02-13T06:10:51.811Z,-0.70
2018-02-13T06:13:17.791Z,-0.80
2018-02-13T06:15:43.773Z,-0.70
2018-02-13T06:18:09.707Z,-0.70
2018-02-13T06:20:36.416Z,-0.60
2018-02-13T06:23:02.343Z,-0.60
2018-02-13T06:25:28.352Z,-0.60
2018-02-13T06:27:54.286Z,-0.50
2018-02-13T06:30:20.356Z,-0.60
2018-02-13T06:32:46.339Z,-0.60
2018-02-13T06:35:12.314Z,-0.60
2018-02-13T06:37:39.052Z,-0.60
2018-02-13T06:40:06.677Z,-0.60
2018-02-13T06:42:32.633Z,-0.60
2018-02-13T06:44:58.574Z,-0.70
2018-02-13T06:47:24.583Z,-0.60
2018-02-13T06:49:51.266Z,-0.60
2018-02-13T06:52:17.213Z,-0.60
2018-02-13T06:54:44.035Z,-0.60
2018-02-13T06:57:09.978Z,-0.50
2018-02-13T06:59:36.724Z,-0.50
2018-02-13T07:02:03.414Z,-0.50
2018-02-13T07:04:29.395Z,-0.50
2018-02-13T07:06:55.332Z,-0.50
2018-02-13T07:09:21.430Z,-0.50
2018-02-13T07:11:48.135Z,-0.60
2018-02-13T07:14:14.067Z,-0.60
2018-02-13T07:16:40.074Z,-0.70
2018-02-13T07:19:06.091Z,-0.60
2018-02-13T07:21:32.053Z,-0.60
2018-02-13T07:23:58.737Z,-0.50
2018-02-13T07:26:25.503Z,-0.50
2018-02-13T07:28:51.454Z,-0.50
2018-02-13T07:31:18.363Z,-0.50
2018-02-13T07:33:44.360Z,-0.60
2018-02-13T07:36:10.307Z,-0.50
2018-02-13T07:38:36.340Z,-0.50
2018-02-13T07:41:02.275Z,-0.50
2018-02-13T07:43:28.257Z,-0.50
2018-02-13T07:45:54.198Z,-0.40
2018-02-13T07:48:20.299Z,-0.40
2018-02-13T07:50:46.263Z,-0.40
2018-02-13T07:53:12.195Z,-0.30
2018-02-13T07:55:38.204Z,-0.30
2018-02-13T07:58:04.132Z,-0.30
2018-02-13T08:00:30.125Z,-0.40
2018-02-13T08:02:56.072Z,-0.30
2018-02-13T08:05:22.046Z,-0.20
2018-02-13T08:07:48.019Z,-0.20
2018-02-13T08:10:14.005Z,-0.20
2018-02-13T08:12:39.965Z,-0.30
2018-02-13T08:15:06.693Z,-0.40
2018-02-13T08:17:32.674Z,-0.40
2018-02-13T08:19:58.646Z,-0.30
2018-02-13T08:22:24.733Z,-0.20
2018-02-13T08:24:50.670Z,-0.20
2018-02-13T08:27:16.647Z,-0.30
2018-02-13T08:29:42.766Z,-0.20
2018-02-13T08:32:08.790Z,-0.10
2018-02-13T08:34:34.729Z,0.00
2018-02-13T08:37:00.711Z,-0.10
2018-02-13T08:39:26.690Z,0.00
2018-02-13T08:41:52.666Z,0.00
2018-02-13T08:44:19.348Z,0.10
2018-02-13T08:46:45.367Z,0.10
2018-02-13T08:49:11.328Z,0.30
2018-02-13T08:51:37.415Z,0.40
2018-02-13T08:54:03.382Z,0.40
2018-02-13T08:56:29.343Z,0.50
2018-02-13T08:58:55.280Z,0.70
2018-02-13T09:01:21.250Z,0.90
2018-02-13T09:03:47.226Z,1.00
2018-02-13T09:06:13.239Z,1.30
2018-02-13T09:08:39.209Z,1.50
2018-02-13T09:11:05.221Z,1.60
2018-02-13T09:13:31.156Z,1.60
2018-02-13T09:15:57.858Z,2.50
2018-02-13T09:18:23.856Z,2.50
2018-02-13T09:20:49.785Z,2.90
2018-02-13T09:23:15.735Z,3.20
2018-02-13T09:25:41.823Z,3.30
2018-02-13T09:28:07.781Z,3.70
2018-02-13T09:30:33.896Z,4.20
2018-02-13T09:32:59.845Z,4.60
2018-02-13T09:35:25.848Z,5.20
2018-02-13T09:37:51.924Z,5.60
2018-02-13T09:40:18.638Z,5.90
2018-02-13T09:42:44.639Z,6.00
2018-02-13T09:45:10.598Z,6.00
2018-02-13T09:47:36.587Z,6.20
2018-02-13T09:50:02.534Z,6.20
2018-02-13T09:52:29.260Z,6.10
2018-02-13T09:54:55.208Z,6.10
2018-02-13T09:57:21.329Z,5.70
2018-02-13T09:59:48.032Z,5.30
2018-02-13T10:02:14.024Z,5.20
2018-02-13T10:04:40.039Z,4.90
2018-02-13T10:07:06.015Z,4.60
2018-02-13T10:09:32.015Z,4.20
2018-02-13T10:11:57.999Z,3.90
2018-02-13T10:14:24.139Z,3.50
2018-02-13T10:16:50.099Z,3.30
2018-02-13T10:19:16.077Z,3.10
2018-02-13T10:21:42.078Z,3.00
2018-02-13T10:24:08.047Z,2.80
2018-02-13T10:26:34.048Z,2.80
2018-02-13T10:29:00.037Z,2.80
2018-02-13T10:31:26.928Z,2.60
2018-02-13T10:33:52.911Z,2.60
2018-02-13T10:36:19.632Z,2.60
2018-02-13T10:38:45.584Z,2.60
2018-02-13T10:41:11.568Z,2.70
2018-02-13T10:43:37.521Z,2.90
2018-02-13T10:46:03.636Z,2.90
2018-02-13T10:48:30.337Z,3.20
2018-02-13T10:50:56.311Z,3.20
2018-02-13T10:53:22.287Z,3.30
2018-02-13T10:55:48.250Z,3.50
2018-02-13T10:58:14.986Z,3.70
2018-02-13T11:00:40.957Z,3.60
2018-02-13T11:03:07.043Z,3.70
2018-02-13T11:05:33.031Z,3.80
2018-02-13T11:07:59.152Z,3.80
2018-02-13T11:10:25.111Z,3.70
2018-02-13T11:12:51.110Z,3.80
2018-02-13T11:15:17.067Z,3.90
2018-02-13T11:17:43.180Z,4.00
2018-02-13T11:20:09.120Z,4.10
2018-02-13T11:22:35.088Z,4.20
2018-02-13T11:25:01.184Z,4.20
2018-02-13T11:27:27.133Z,4.20
2018-02-13T11:29:53.296Z,4.30
2018-02-13T11:32:20.017Z,4.40
2018-02-13T11:34:46.008Z,4.40
2018-02-13T11:37:11.977Z,4.40
2018-02-13T11:39:38.654Z,4.40
2018-02-13T11:42:04.780Z,4.40
2018-02-13T11:44:30.752Z,4.40
2018-02-13T11:46:57.524Z,4.60
2018-02-13T11:49:23.479Z,4.60
2018-02-13T11:51:49.442Z,4.70
2018-02-13T11:54:16.192Z,4.80
2018-02-13T11:56:42.177Z,4.80
2018-02-13T11:59:08.195Z,4.90
2018-02-13T12:01:34.151Z,5.00
2018-02-13T12:04:00.931Z,4.90
2018-02-13T12:06:26.928Z,4.90
2018-02-13T12:08:53.846Z,5.00
2018-02-13T12:11:19.840Z,5.00
2018-02-13T12:13:45.790Z,4.90
2018-02-13T12:16:12.516Z,5.20
2018-02-13T12:18:38.466Z,5.20
2018-02-13T12:21:05.210Z,5.10
2018-02-13T12:23:31.184Z,5.10
2018-02-13T12:25:57.291Z,5.10
2018-02-13T12:28:23.253Z,5.00
2018-02-13T12:30:49.437Z,4.90
2018-02-13T12:33:15.398Z,4.90
2018-02-13T12:35:41.360Z,5.00
2018-02-13T12:38:07.383Z,5.00
2018-02-13T12:40:33.347Z,5.20
2018-02-13T12:42:59.428Z,5.30
2018-02-13T12:45:25.397Z,5.50
2018-02-13T12:47:51.433Z,5.50
2018-02-13T12:50:17.426Z,5.50
2018-02-13T12:52:43.429Z,5.60
2018-02-13T12:55:09.387Z,5.60
2018-02-13T12:57:35.429Z,5.50
2018-02-13T13:00:01.447Z,5.70
2018-02-13T13:02:27.408Z,5.70
2018-02-13T13:04:54.251Z,5.80
2018-02-13T13:07:20.954Z,5.90
2018-02-13T13:09:46.911Z,5.90
2018-02-13T13:12:12.923Z,5.80
2018-02-13T13:14:39.816Z,5.80
2018-02-13T13:17:05.771Z,5.80
2018-02-13T13:19:31.755Z,5.70
2018-02-13T13:21:57.824Z,5.60
2018-02-13T13:24:23.827Z,5.50
2018-02-13T13:26:49.813Z,5.40
2018-02-13T13:29:15.764Z,5.40
2018-02-13T13:31:41.907Z,5.50
2018-02-13T13:34:07.918Z,5.60
2018-02-13T13:36:33.918Z,5.70
2018-02-13T13:39:00.450Z,5.80
2018-02-13T13:41:26.406Z,5.80
2018-02-13T13:43:52.436Z,5.80
2018-02-13T13:46:18.392Z,5.80
2018-02-13T13:48:44.498Z,5.80
2018-02-13T13:51:10.465Z,5.80
2018-02-13T13:53:36.468Z,5.80
2018-02-13T13:56:02.454Z,5.80
2018-02-13T13:58:29.236Z,5.80
2018-02-13T14:00:55.247Z,5.80
2018-02-13T14:03:21.210Z,5.70
2018-02-13T14:05:47.935Z,5.80
2018-02-13T14:08:13.946Z,5.80
2018-02-13T14:10:39.901Z,5.70
2018-02-13T14:13:05.950Z,5.70
2018-02-13T14:15:31.925Z,5.70
2018-02-13T14:17:57.904Z,5.70
2018-02-13T14:20:24.623Z,5.90
2018-02-13T14:22:50.672Z,5.90
2018-02-13T14:25:17.471Z,6.10
2018-02-13T14:27:43.561Z,6.10
2018-02-13T14:30:09.712Z,6.00
2018-02-13T14:32:35.672Z,5.90
2018-02-13T14:35:01.711Z,6.00
2018-02-13T14:37:27.826Z,6.10
2018-02-13T14:39:53.840Z,6.00
2018-02-13T14:42:20.611Z,5.90
2018-02-13T14:44:47.346Z,5.80
2018-02-13T14:47:14.056Z,5.60
2018-02-13T14:49:40.085Z,5.60
2018-02-13T14:52:06.803Z,5.50
2018-02-13T14:54:32.752Z,5.50
2018-02-13T14:56:59.621Z,5.50
2018-02-13T14:59:25.572Z,5.50
2018-02-13T15:01:51.569Z,5.40
2018-02-13T15:04:17.602Z,5.40
2018-02-13T15:06:43.919Z,5.30
2018-02-13T15:09:09.876Z,5.30
2018-02-13T15:11:36.289Z,5.20
2018-02-13T15:14:02.271Z,5.20
2018-02-13T15:16:28.233Z,5.20
2018-02-13T15:18:54.239Z,5.10
2018-02-13T15:21:20.229Z,5.10
2018-02-13T15:23:46.230Z,5.20
2018-02-13T15:26:12.164Z,5.20
2018-02-13T15:28:38.320Z,5.30
2018-02-13T15:31:05.236Z,5.20
2018-02-13T15:33:31.367Z,5.20
2018-02-13T15:35:57.397Z,5.20
2018-02-13T15:38:23.460Z,5.10
2018-02-13T15:40:49.448Z,5.10
2018-02-13T15:43:15.440Z,5.10
2018-02-13T15:45:41.404Z,5.10
2018-02-13T15:48:08.161Z,4.90
2018-02-13T15:50:39.461Z,4.90
2018-02-13T15:53:06.298Z,4.80
2018-02-13T15:55:32.348Z,4.50
2018-02-13T15:57:59.089Z,4.30
2018-02-13T16:00:26.320Z,4.20
2018-02-13T16:02:52.724Z,4.20
2018-02-13T16:05:18.750Z,4.10
2018-02-13T16:07:46.533Z,4.00
2018-02-13T16:10:13.979Z,4.00
2018-02-13T16:12:39.954Z,3.90
2018-02-13T16:15:08.085Z,3.90
2018-02-13T16:17:34.082Z,3.70
2018-02-13T16:20:00.233Z,3.60
2018-02-13T16:22:26.212Z,3.60
2018-02-13T16:24:52.243Z,3.60
2018-02-13T16:27:18.236Z,3.60
2018-02-13T16:29:47.278Z,3.40
2018-02-13T16:32:13.531Z,3.40
2018-02-13T16:34:39.500Z,3.40
2018-02-13T16:37:05.636Z,3.40
2018-02-13T16:39:35.499Z,3.20
2018-02-13T16:42:02.910Z,3.10
2018-02-13T16:44:30.762Z,3.00
2018-02-13T16:46:59.056Z,3.00
2018-02-13T16:49:25.060Z,2.90
2018-02-13T16:51:55.446Z,2.90
2018-02-13T17:01:26.140Z,2.70
2018-02-13T17:03:53.672Z,2.60
2018-02-13T17:06:23.298Z,2.60
2018-02-13T17:08:51.537Z,2.50
2018-02-13T17:17:22.613Z,2.50
2018-02-13T17:19:50.498Z,2.50
2018-02-13T17:22:21.985Z,2.50
2018-02-13T17:24:49.800Z,2.50
2018-02-13T17:27:15.877Z,2.40
2018-02-13T17:29:45.017Z,2.40
2018-02-13T17:32:14.120Z,2.40
2018-02-13T17:34:42.074Z,2.50
2018-02-13T17:37:09.945Z,2.50
2018-02-13T17:39:38.095Z,2.50
2018-02-13T17:42:06.892Z,2.50
2018-02-13T17:44:34.707Z,2.50
2018-02-13T17:47:04.072Z,2.50
2018-02-13T17:49:32.957Z,2.50
2018-02-13T17:51:59.894Z,2.40
2018-02-13T17:54:29.376Z,2.40
2018-02-13T17:56:58.760Z,2.20
2018-02-13T17:59:27.589Z,2.20
2018-02-13T18:02:04.299Z,2.10
2018-02-13T18:04:40.034Z,2.00
2018-02-13T18:07:10.165Z,2.00
2018-02-13T18:09:39.198Z,1.90
2018-02-13T18:12:09.988Z,1.90
2018-02-13T18:14:39.582Z,1.80
2018-02-13T18:17:08.965Z,1.80
2018-02-13T18:19:38.596Z,1.70
2018-02-13T18:22:06.829Z,1.80
2018-02-13T18:24:33.810Z,1.80
2018-02-13T18:27:01.871Z,1.80
2018-02-13T18:29:30.009Z,1.70
2018-02-13T18:32:01.064Z,1.70
2018-02-13T18:34:30.714Z,1.70
2018-02-13T18:37:01.537Z,1.70
2018-02-13T18:39:37.644Z,1.60
2018-02-13T18:42:09.790Z,1.60
2018-02-13T18:44:38.439Z,1.60
2018-02-13T18:47:07.069Z,1.70
2018-02-13T18:49:38.131Z,1.60
2018-02-13T18:54:40.204Z,1.60
2018-02-13T18:57:17.557Z,1.60
2018-02-13T18:59:50.157Z,1.70
2018-02-13T19:05:01.845Z,1.80
2018-02-13T19:07:31.295Z,1.70
2018-02-13T19:10:01.549Z,1.70
2018-02-13T19:12:29.963Z,1.60
2018-02-13T19:17:34.301Z,1.60
2018-02-13T19:20:03.172Z,1.60
2018-02-13T19:22:31.232Z,1.50
2018-02-13T19:24:58.220Z,1.50
2018-02-13T19:27:27.260Z,1.50
2018-02-13T19:29:56.981Z,1.40
2018-02-13T19:32:26.953Z,1.40
2018-02-13T19:34:57.665Z,1.40
2018-02-13T19:37:28.443Z,1.40
2018-02-13T19:39:56.678Z,1.40
2018-02-13T19:42:25.744Z,1.20
2018-02-13T19:44:55.716Z,1.20
2018-02-13T19:47:25.581Z,1.20
2018-02-13T19:49:56.142Z,1.10
2018-02-13T19:52:25.132Z,1.10
2018-02-13T19:54:53.852Z,1.10
2018-02-13T19:57:27.486Z,1.10
2018-02-13T19:59:58.280Z,1.20
2018-02-13T20:02:25.518Z,1.20
2018-02-13T20:04:53.125Z,1.20
2018-02-13T20:07:25.857Z,1.20
2018-02-13T20:09:54.719Z,1.10
2018-02-13T20:12:23.233Z,1.10
2018-02-13T20:14:50.059Z,1.10
2018-02-13T20:17:18.168Z,1.10
2018-02-13T20:19:46.179Z,1.10
2018-02-13T20:22:16.173Z,1.10
2018-02-13T20:24:43.211Z,1.10
2018-02-13T20:27:10.167Z,1.10
2018-02-13T20:29:36.454Z,1.10
2018-02-13T20:32:03.969Z,1.10
2018-02-13T20:34:31.926Z,1.10
2018-02-13T20:36:59.024Z,1.10
2018-02-13T20:39:25.103Z,1.10
2018-02-13T20:41:51.091Z,1.00
2018-02-13T20:44:17.793Z,1.10
2018-02-13T20:46:43.810Z,1.10
2018-02-13T20:49:09.893Z,1.10
2018-02-13T20:51:35.917Z,1.00
2018-02-13T20:54:01.892Z,1.00
2018-02-13T20:56:27.925Z,0.90
2018-02-13T20:58:53.893Z,0.90
2018-02-13T21:01:19.872Z,0.80
2018-02-13T21:03:45.887Z,0.80
2018-02-13T21:06:11.849Z,0.80
2018-02-13T21:08:37.939Z,0.80
2018-02-13T21:11:03.943Z,0.80
2018-02-13T21:13:29.979Z,0.80
2018-02-13T21:15:55.973Z,0.80
2018-02-13T21:18:22.127Z,0.90
2018-02-13T21:20:48.116Z,0.80
2018-02-13T21:23:14.098Z,0.80
2018-02-13T21:25:40.878Z,0.90
2018-02-13T21:28:06.879Z,0.80
2018-02-13T21:30:33.029Z,0.90
2018-02-13T21:32:59.024Z,0.80
2018-02-13T21:35:25.762Z,0.80
2018-02-13T21:37:52.484Z,0.80
2018-02-13T21:40:18.578Z,0.80
2018-02-13T21:42:44.548Z,0.90
2018-02-13T21:45:10.563Z,0.80
2018-02-13T21:47:37.253Z,0.80
2018-02-13T21:50:03.232Z,0.80
2018-02-13T21:52:29.206Z,0.80
2018-02-13T21:54:55.344Z,0.70
2018-02-13T21:57:21.316Z,0.60
2018-02-13T21:59:47.304Z,0.60
2018-02-13T22:02:13.260Z,0.50
2018-02-13T22:04:39.217Z,0.50
2018-02-13T22:07:05.211Z,0.40
2018-02-13T22:09:31.157Z,0.40
2018-02-13T22:11:57.259Z,0.40
2018-02-13T22:14:23.224Z,0.40
2018-02-13T22:16:49.217Z,0.40
2018-02-13T22:19:15.162Z,0.40
2018-02-13T22:21:41.146Z,0.30
2018-02-13T22:24:07.847Z,0.20
2018-02-13T22:26:33.783Z,0.30
2018-02-13T22:29:00.669Z,0.30
2018-02-13T22:31:26.611Z,0.20
2018-02-13T22:33:52.583Z,0.30
2018-02-13T22:36:18.553Z,0.30
2018-02-13T22:38:44.521Z,0.40
2018-02-13T22:41:10.497Z,0.30
2018-02-13T22:43:36.440Z,0.30
2018-02-13T22:46:02.534Z,0.20
2018-02-13T22:48:28.481Z,0.10
2018-02-13T22:50:54.456Z,0.00
2018-02-13T22:53:20.398Z,0.10
2018-02-13T22:55:46.340Z,0.10
2018-02-13T22:58:12.343Z,0.00
2018-02-13T23:00:38.296Z,0.00
2018-02-13T23:03:04.400Z,0.10
2018-02-13T23:05:30.371Z,0.10
2018-02-13T23:07:56.337Z,0.00
2018-02-13T23:10:22.287Z,0.00
2018-02-13T23:12:48.248Z,0.00
2018-02-13T23:15:14.220Z,0.00
2018-02-13T23:17:40.287Z,0.00
2018-02-13T23:20:06.247Z,0.00
2018-02-13T23:22:32.230Z,0.00
2018-02-13T23:24:58.209Z,0.00
2018-02-13T23:27:24.147Z,0.00
2018-02-13T23:29:50.853Z,-0.10
2018-02-13T23:32:16.788Z,-0.10
2018-02-13T23:34:42.904Z,-0.10
2018-02-13T23:37:09.003Z,-0.10
2018-02-13T23:39:34.944Z,-0.10
2018-02-13T23:42:00.900Z,-0.10
2018-02-13T23:44:26.859Z,-0.10
2018-02-13T23:46:52.796Z,-0.20
2018-02-13T23:49:18.732Z,-0.30
2018-02-13T23:51:44.828Z,-0.30
2018-02-13T23:54:10.795Z,-0.40
2018-02-13T23:56:36.786Z,-0.40
2018-02-13T23:59:02.751Z,-0.40
